Time;durP1;ratioP1;P1;durP2;ratioP2;P2;SDS_P1;SDS_P2;PMS_P1;PMS_P2;Temp;Humidity;BMP_temperature;BMP_pressure;BME280_temperature;BME280_humidity;BME280_pressure;Samples;Min_cycle;Max_cycle;Signal;HPM_P1;HPM_P2
2023/02/17 00:01:40;;;;;;;35.33;24.20;;;;;;;;;;5048420;28;20612;-67
2023/02/17 00:04:06;;;;;;;34.15;25.10;;;;;;;;;;5055678;28;20283;-67
2023/02/17 00:06:31;;;;;;;32.90;24.55;;;;;;;;;;5054928;28;20224;-67
2023/02/17 00:08:58;;;;;;;34.38;25.10;;;;;;;;;;5051944;28;20184;-68
2023/02/17 00:11:24;;;;;;;34.72;25.75;;;;;;;;;;5066255;28;20196;-67
2023/02/17 00:13:51;;;;;;;35.83;26.77;;;;;;;;;;5054683;28;20326;-67
2023/02/17 00:16:19;;;;;;;37.10;25.85;;;;;;;;;;5054615;28;20187;-70
2023/02/17 00:18:45;;;;;;;37.78;26.00;;;;;;;;;;5049355;28;20275;-67
2023/02/17 00:21:17;;;;;;;36.30;26.38;;;;;;;;;;5063764;28;20203;-67
2023/02/17 00:23:43;;;;;;;36.63;25.35;;;;;;;;;;5059476;28;20205;-67
2023/02/17 00:26:08;;;;;;;35.08;25.50;;;;;;;;;;5054170;28;20239;-67
2023/02/17 00:28:34;;;;;;;36.70;25.75;;;;;;;;;;5048861;28;20292;-67
2023/02/17 00:31:05;;;;;;;37.22;24.98;;;;;;;;;;5061558;28;20284;-67
2023/02/17 00:33:30;;;;;;;33.90;23.33;;;;;;;;;;5050424;28;20276;-67
2023/02/17 00:35:55;;;;;;;35.47;24.52;;;;;;;;;;5048930;28;20729;-67
2023/02/17 00:38:21;;;;;;;37.35;24.10;;;;;;;;;;5049332;28;20193;-67
2023/02/17 00:40:46;;;;;;;34.28;23.38;;;;;;;;;;5048761;28;20211;-67
2023/02/17 00:43:13;;;;;;;30.95;21.73;;;;;;;;;;5050983;28;20189;-68
2023/02/17 00:45:38;;;;;;;31.95;22.38;;;;;;;;;;5047235;28;20760;-68
2023/02/17 00:48:03;;;;;;;35.40;22.42;;;;;;;;;;5050677;28;20788;-67
2023/02/17 00:50:29;;;;;;;33.83;23.27;;;;;;;;;;5058085;28;20217;-67
2023/02/17 00:52:54;;;;;;;31.55;22.02;;;;;;;;;;5049905;28;20185;-67
2023/02/17 00:55:20;;;;;;;31.77;21.50;;;;;;;;;;5060900;28;20414;-67
2023/02/17 00:57:45;;;;;;;31.92;21.33;;;;;;;;;;5062487;28;20625;-67
2023/02/17 01:00:11;;;;;;;32.20;21.38;;;;;;;;;;5058610;28;20219;-67
2023/02/17 01:02:36;;;;;;;34.55;20.70;;;;;;;;;;5050352;28;20718;-67
2023/02/17 01:05:02;;;;;;;31.75;20.60;;;;;;;;;;5052290;28;20192;-67
2023/02/17 01:07:27;;;;;;;29.55;20.30;;;;;;;;;;5049999;28;20236;-67
2023/02/17 01:09:52;;;;;;;30.40;20.17;;;;;;;;;;5052323;28;20260;-67
2023/02/17 01:12:18;;;;;;;33.28;21.70;;;;;;;;;;5049775;28;20193;-67
2023/02/17 01:14:43;;;;;;;32.90;21.90;;;;;;;;;;5046981;28;20228;-67
2023/02/17 01:17:08;;;;;;;31.40;21.48;;;;;;;;;;5052527;28;20647;-67
2023/02/17 01:19:34;;;;;;;33.80;21.67;;;;;;;;;;5052718;28;20205;-67
2023/02/17 01:21:59;;;;;;;34.38;21.17;;;;;;;;;;5064558;28;20246;-68
2023/02/17 01:24:24;;;;;;;29.52;20.13;;;;;;;;;;5046886;28;20664;-67
2023/02/17 01:26:50;;;;;;;31.63;21.88;;;;;;;;;;5062028;28;20323;-67
2023/02/17 01:29:15;;;;;;;33.13;22.20;;;;;;;;;;5050279;28;20204;-67
2023/02/17 01:31:40;;;;;;;35.25;22.98;;;;;;;;;;5055952;28;20189;-67
2023/02/17 01:34:06;;;;;;;33.10;21.42;;;;;;;;;;5048447;28;20189;-67
2023/02/17 01:36:32;;;;;;;34.03;23.10;;;;;;;;;;5046450;28;20205;-67
2023/02/17 01:38:57;;;;;;;33.83;21.92;;;;;;;;;;5060889;28;20246;-67
2023/02/17 01:41:26;;;;;;;33.83;23.08;;;;;;;;;;5049910;28;20184;-66
2023/02/17 01:44:04;;;;;;;36.88;24.00;;;;;;;;;;5051326;28;20205;-67
2023/02/17 01:46:35;;;;;;;36.22;23.02;;;;;;;;;;5055473;28;20192;-67
2023/02/17 01:49:03;;;;;;;34.30;22.33;;;;;;;;;;5058740;28;20197;-67
2023/02/17 01:51:32;;;;;;;35.92;23.92;;;;;;;;;;5054173;28;20260;-68
2023/02/17 01:54:03;;;;;;;34.90;23.05;;;;;;;;;;5061469;28;20192;-67
2023/02/17 01:56:31;;;;;;;34.58;22.33;;;;;;;;;;5062140;28;20196;-67
2023/02/17 01:59:02;;;;;;;35.10;23.73;;;;;;;;;;5065067;28;20326;-67
2023/02/17 02:01:28;;;;;;;34.10;22.88;;;;;;;;;;5056947;28;20305;-67
2023/02/17 02:03:54;;;;;;;33.22;21.85;;;;;;;;;;5056273;28;20189;-67
2023/02/17 02:06:23;;;;;;;33.92;22.20;;;;;;;;;;5062006;28;20726;-67
2023/02/17 02:08:57;;;;;;;34.17;21.05;;;;;;;;;;5051610;28;20648;-68
2023/02/17 02:11:23;;;;;;;34.35;23.05;;;;;;;;;;5054695;28;20266;-67
2023/02/17 02:13:49;;;;;;;36.00;22.58;;;;;;;;;;5061750;28;20205;-68
2023/02/17 02:16:24;;;;;;;33.70;22.67;;;;;;;;;;5060976;28;20185;-67
2023/02/17 02:19:10;;;;;;;33.83;23.02;;;;;;;;;;5051950;28;20203;-67
2023/02/17 02:22:18;;;;;;;33.58;21.35;;;;;;;;;;5054891;28;20323;-67
2023/02/17 02:25:08;;;;;;;38.20;23.55;;;;;;;;;;5049476;28;20247;-67
2023/02/17 02:27:44;;;;;;;34.00;22.02;;;;;;;;;;5067324;28;20220;-67
2023/02/17 02:30:21;;;;;;;32.88;21.10;;;;;;;;;;5060850;28;20276;-67
2023/02/17 02:32:57;;;;;;;33.33;22.00;;;;;;;;;;5052891;28;20216;-67
2023/02/17 02:35:39;;;;;;;32.60;22.13;;;;;;;;;;5065178;28;20679;-67
2023/02/17 02:38:26;;;;;;;30.30;21.17;;;;;;;;;;5062613;28;20247;-67
2023/02/17 02:41:15;;;;;;;34.75;23.08;;;;;;;;;;5054041;28;20201;-67
2023/02/17 02:43:42;;;;;;;33.88;22.83;;;;;;;;;;5056812;28;20771;-67
2023/02/17 02:46:07;;;;;;;31.83;22.63;;;;;;;;;;5050606;28;20201;-67
2023/02/17 02:48:33;;;;;;;31.15;22.02;;;;;;;;;;5058366;28;20551;-67
2023/02/17 02:51:21;;;;;;;32.28;22.55;;;;;;;;;;5056059;28;20193;-67
2023/02/17 02:54:16;;;;;;;33.58;22.48;;;;;;;;;;5059786;28;20850;-67
2023/02/17 02:57:05;;;;;;;31.52;21.58;;;;;;;;;;5049383;28;20189;-66
2023/02/17 02:59:51;;;;;;;30.40;20.50;;;;;;;;;;5056105;28;20219;-67
2023/02/17 03:02:26;;;;;;;31.73;22.10;;;;;;;;;;5059822;28;20216;-67
2023/02/17 03:05:01;;;;;;;32.95;22.08;;;;;;;;;;5055639;28;20241;-67
2023/02/17 03:07:39;;;;;;;33.05;21.67;;;;;;;;;;5049982;28;20676;-67
2023/02/17 03:10:05;;;;;;;32.47;20.67;;;;;;;;;;5059107;28;20195;-67
2023/02/17 03:12:31;;;;;;;33.03;21.88;;;;;;;;;;5061080;28;20198;-67
2023/02/17 03:15:03;;;;;;;32.70;22.02;;;;;;;;;;5060952;28;20243;-67
2023/02/17 03:17:32;;;;;;;32.40;21.25;;;;;;;;;;5049615;28;20211;-67
2023/02/17 03:20:02;;;;;;;36.00;22.33;;;;;;;;;;5054900;28;20213;-67
2023/02/17 03:22:32;;;;;;;34.25;22.85;;;;;;;;;;5050336;28;20276;-67
2023/02/17 03:25:00;;;;;;;35.88;23.13;;;;;;;;;;5051520;28;20589;-67
2023/02/17 03:27:25;;;;;;;35.50;21.92;;;;;;;;;;5063180;28;20316;-67
2023/02/17 03:29:51;;;;;;;34.25;22.02;;;;;;;;;;5053774;28;20272;-66
2023/02/17 03:32:16;;;;;;;35.38;22.38;;;;;;;;;;5060637;28;20216;-67
2023/02/17 03:34:42;;;;;;;34.22;22.38;;;;;;;;;;5053873;28;20200;-67
2023/02/17 03:37:07;;;;;;;34.83;22.70;;;;;;;;;;5055713;28;20180;-66
2023/02/17 03:39:33;;;;;;;39.00;23.90;;;;;;;;;;5064277;28;20197;-66
2023/02/17 03:41:58;;;;;;;35.10;22.30;;;;;;;;;;5049148;28;20272;-66
2023/02/17 03:44:23;;;;;;;35.03;21.45;;;;;;;;;;5057636;28;20189;-67
2023/02/17 03:46:49;;;;;;;35.58;21.73;;;;;;;;;;5051388;28;20217;-67
2023/02/17 03:49:14;;;;;;;37.10;21.98;;;;;;;;;;5051517;28;20223;-66
2023/02/17 03:51:39;;;;;;;39.33;22.20;;;;;;;;;;5062825;28;20579;-67
2023/02/17 03:54:05;;;;;;;36.10;22.52;;;;;;;;;;5057594;28;20275;-67
2023/02/17 03:56:31;;;;;;;36.97;22.88;;;;;;;;;;5054111;28;20672;-67
2023/02/17 03:58:56;;;;;;;35.13;21.52;;;;;;;;;;5054261;28;20192;-67
2023/02/17 04:01:22;;;;;;;35.08;22.02;;;;;;;;;;5060318;28;20217;-67
2023/02/17 04:03:47;;;;;;;33.53;21.75;;;;;;;;;;5059477;28;20203;-66
2023/02/17 04:06:13;;;;;;;34.75;20.17;;;;;;;;;;5053069;28;20700;-66
2023/02/17 04:08:39;;;;;;;36.53;20.42;;;;;;;;;;5060670;28;20266;-67
2023/02/17 04:11:07;;;;;;;31.05;18.92;;;;;;;;;;5061763;28;20189;-66
2023/02/17 04:13:33;;;;;;;32.67;19.92;;;;;;;;;;5059824;28;20197;-66
2023/02/17 04:16:00;;;;;;;33.97;20.75;;;;;;;;;;5053333;28;20196;-67
2023/02/17 04:18:26;;;;;;;33.97;19.65;;;;;;;;;;5049664;28;20297;-66
2023/02/17 04:20:52;;;;;;;33.20;18.80;;;;;;;;;;5047163;28;20263;-67
2023/02/17 04:23:18;;;;;;;32.47;20.27;;;;;;;;;;5053165;28;20195;-66
2023/02/17 04:25:44;;;;;;;35.15;20.13;;;;;;;;;;5058190;28;20240;-66
2023/02/17 04:28:09;;;;;;;32.50;19.17;;;;;;;;;;5061210;28;20268;-66
2023/02/17 04:30:35;;;;;;;29.70;18.55;;;;;;;;;;5054672;28;20607;-66
2023/02/17 04:33:00;;;;;;;31.85;19.23;;;;;;;;;;5050976;28;20668;-67
2023/02/17 04:35:26;;;;;;;30.90;18.98;;;;;;;;;;5050677;28;20277;-67
2023/02/17 04:37:52;;;;;;;29.50;17.40;;;;;;;;;;5050967;28;20185;-67
2023/02/17 04:40:17;;;;;;;29.67;18.08;;;;;;;;;;5053206;28;20221;-69
2023/02/17 04:42:43;;;;;;;27.17;17.45;;;;;;;;;;5053729;28;20246;-67
2023/02/17 04:45:08;;;;;;;30.08;17.90;;;;;;;;;;5048522;28;20197;-67
2023/02/17 04:47:34;;;;;;;28.08;16.90;;;;;;;;;;5048667;28;20204;-67
2023/02/17 04:49:59;;;;;;;30.35;17.05;;;;;;;;;;5060776;28;20352;-67
2023/02/17 04:52:25;;;;;;;26.25;17.05;;;;;;;;;;5050372;28;20347;-67
2023/02/17 04:54:51;;;;;;;28.95;17.25;;;;;;;;;;5048261;28;20181;-67
2023/02/17 04:57:17;;;;;;;26.73;16.17;;;;;;;;;;5061293;28;20258;-66
2023/02/17 04:59:42;;;;;;;28.92;17.17;;;;;;;;;;5063899;28;20189;-67
2023/02/17 05:02:07;;;;;;;25.77;16.48;;;;;;;;;;5051667;28;20640;-67
2023/02/17 05:04:33;;;;;;;26.40;16.70;;;;;;;;;;5051148;28;20193;-67
2023/02/17 05:06:59;;;;;;;29.60;17.15;;;;;;;;;;5055621;28;20684;-67
2023/02/17 05:09:24;;;;;;;24.48;16.13;;;;;;;;;;5055907;28;20243;-67
2023/02/17 05:11:49;;;;;;;25.73;16.13;;;;;;;;;;5053645;28;20180;-67
2023/02/17 05:14:15;;;;;;;26.25;16.52;;;;;;;;;;5055294;28;20189;-67
2023/02/17 05:16:40;;;;;;;27.92;16.55;;;;;;;;;;5054434;28;20197;-66
2023/02/17 05:19:06;;;;;;;27.55;16.67;;;;;;;;;;5054800;28;20196;-67
2023/02/17 05:21:31;;;;;;;25.85;15.27;;;;;;;;;;5046965;28;20190;-67
2023/02/17 05:23:57;;;;;;;24.45;16.73;;;;;;;;;;5060213;28;20215;-66
2023/02/17 05:26:22;;;;;;;26.35;16.45;;;;;;;;;;5066000;28;20438;-67
2023/02/17 05:28:48;;;;;;;23.67;15.45;;;;;;;;;;5062718;28;20204;-67
2023/02/17 05:31:13;;;;;;;23.73;14.60;;;;;;;;;;5050063;28;20336;-66
2023/02/17 05:33:38;;;;;;;25.75;16.13;;;;;;;;;;5064656;28;20196;-67
2023/02/17 05:36:06;;;;;;;26.23;15.07;;;;;;;;;;5061512;28;20194;-66
2023/02/17 05:38:32;;;;;;;26.35;15.27;;;;;;;;;;5055801;28;20197;-67
2023/02/17 05:40:57;;;;;;;24.95;15.60;;;;;;;;;;5065443;28;20541;-66
2023/02/17 05:43:22;;;;;;;25.50;16.05;;;;;;;;;;5051395;28;20204;-67
2023/02/17 05:45:48;;;;;;;24.25;15.25;;;;;;;;;;5052132;28;20546;-66
2023/02/17 05:48:13;;;;;;;23.85;14.88;;;;;;;;;;5055758;28;20208;-67
2023/02/17 05:50:39;;;;;;;23.80;14.85;;;;;;;;;;5057669;28;20209;-66
2023/02/17 05:53:04;;;;;;;23.92;15.27;;;;;;;;;;5052935;28;20197;-67
2023/02/17 05:55:30;;;;;;;24.90;15.48;;;;;;;;;;5070211;28;20254;-67
2023/02/17 05:57:55;;;;;;;25.77;15.10;;;;;;;;;;5067724;28;20185;-66
2023/02/17 06:00:20;;;;;;;27.88;15.55;;;;;;;;;;5064069;28;20729;-66
2023/02/17 06:02:46;;;;;;;24.63;15.25;;;;;;;;;;5052489;28;20193;-67
2023/02/17 06:05:11;;;;;;;26.83;15.60;;;;;;;;;;5049840;28;20185;-67
2023/02/17 06:07:37;;;;;;;27.65;15.88;;;;;;;;;;5050881;28;20234;-67
2023/02/17 06:10:03;;;;;;;23.98;15.13;;;;;;;;;;5050980;28;20232;-66
2023/02/17 06:12:28;;;;;;;25.75;16.00;;;;;;;;;;5052651;28;20701;-67
2023/02/17 06:14:53;;;;;;;27.08;14.68;;;;;;;;;;5054906;28;20196;-66
2023/02/17 06:17:19;;;;;;;24.98;15.10;;;;;;;;;;5053092;28;20578;-66
2023/02/17 06:19:44;;;;;;;27.90;14.93;;;;;;;;;;5057860;28;20190;-66
2023/02/17 06:22:10;;;;;;;31.10;15.15;;;;;;;;;;5059517;28;20650;-66
2023/02/17 06:24:35;;;;;;;24.25;14.85;;;;;;;;;;5057573;28;20201;-67
2023/02/17 06:27:01;;;;;;;27.75;14.75;;;;;;;;;;5051546;28;20241;-66
2023/02/17 06:29:26;;;;;;;26.75;16.10;;;;;;;;;;5061431;28;20699;-66
2023/02/17 06:31:52;;;;;;;27.05;15.70;;;;;;;;;;5060377;28;20269;-66
2023/02/17 06:34:18;;;;;;;30.10;15.90;;;;;;;;;;5051465;28;20209;-67
2023/02/17 06:36:43;;;;;;;36.45;16.80;;;;;;;;;;5060062;28;20191;-66
2023/02/17 06:39:08;;;;;;;27.40;16.65;;;;;;;;;;5056959;28;20197;-67
2023/02/17 06:41:34;;;;;;;28.75;17.13;;;;;;;;;;5052943;28;20201;-67
2023/02/17 06:43:59;;;;;;;29.88;17.25;;;;;;;;;;5053697;28;20203;-66
2023/02/17 06:46:24;;;;;;;30.30;17.13;;;;;;;;;;5051577;28;20201;-67
2023/02/17 06:48:50;;;;;;;28.92;16.48;;;;;;;;;;5052384;28;20217;-66
2023/02/17 06:51:15;;;;;;;30.55;17.85;;;;;;;;;;5052552;28;20213;-66
2023/02/17 06:53:40;;;;;;;31.88;17.73;;;;;;;;;;5066842;28;20266;-66
2023/02/17 06:56:06;;;;;;;28.77;16.92;;;;;;;;;;5060628;28;20181;-66
2023/02/17 06:58:34;;;;;;;26.75;16.25;;;;;;;;;;5051549;28;20189;-66
2023/02/17 07:00:59;;;;;;;31.38;17.27;;;;;;;;;;5059174;28;20225;-67
2023/02/17 07:03:25;;;;;;;27.58;16.30;;;;;;;;;;5054246;28;20543;-67
2023/02/17 07:05:50;;;;;;;29.67;18.38;;;;;;;;;;5060734;28;20196;-68
2023/02/17 07:08:16;;;;;;;29.58;16.65;;;;;;;;;;5048318;28;20707;-67
2023/02/17 07:10:41;;;;;;;28.67;17.15;;;;;;;;;;5048401;28;20553;-68
2023/02/17 07:13:07;;;;;;;26.75;16.35;;;;;;;;;;5052450;28;20201;-67
2023/02/17 07:15:32;;;;;;;29.30;16.65;;;;;;;;;;5046699;28;20181;-67
2023/02/17 07:17:59;;;;;;;31.55;17.90;;;;;;;;;;5049705;28;20178;-67
2023/02/17 07:20:25;;;;;;;31.25;17.98;;;;;;;;;;5049059;28;20237;-67
2023/02/17 07:22:50;;;;;;;30.00;17.55;;;;;;;;;;5055614;28;20653;-67
2023/02/17 07:25:16;;;;;;;26.00;16.67;;;;;;;;;;5048444;28;20276;-67
2023/02/17 07:27:41;;;;;;;32.05;16.13;;;;;;;;;;5056208;28;20225;-67
2023/02/17 07:30:07;;;;;;;29.63;17.02;;;;;;;;;;5058347;28;20181;-66
2023/02/17 07:32:33;;;;;;;30.50;17.35;;;;;;;;;;5053351;28;23542;-67
2023/02/17 07:34:58;;;;;;;29.80;17.70;;;;;;;;;;5062063;28;20229;-67
2023/02/17 07:37:23;;;;;;;28.92;17.27;;;;;;;;;;5049948;28;20200;-66
2023/02/17 07:39:49;;;;;;;29.27;16.95;;;;;;;;;;5051481;28;20260;-67
2023/02/17 07:42:14;;;;;;;31.98;17.45;;;;;;;;;;5049682;28;21597;-68
2023/02/17 07:44:39;;;;;;;27.10;16.83;;;;;;;;;;5053380;28;20717;-67
2023/02/17 07:47:05;;;;;;;31.45;16.48;;;;;;;;;;5053470;28;20212;-67
2023/02/17 07:49:30;;;;;;;28.70;16.40;;;;;;;;;;5048318;28;20201;-67
2023/02/17 07:51:56;;;;;;;23.63;15.95;;;;;;;;;;5053526;28;20201;-66
2023/02/17 07:54:21;;;;;;;27.67;16.33;;;;;;;;;;5053359;28;20212;-67
2023/02/17 07:56:47;;;;;;;27.95;16.45;;;;;;;;;;5051635;28;20185;-66
2023/02/17 07:59:13;;;;;;;30.27;17.17;;;;;;;;;;5054593;28;20726;-66
2023/02/17 08:01:39;;;;;;;24.90;16.05;;;;;;;;;;5054517;28;20209;-67
2023/02/17 08:04:04;;;;;;;27.20;15.48;;;;;;;;;;5051093;28;20231;-67
2023/02/17 08:06:30;;;;;;;26.17;15.93;;;;;;;;;;5048734;28;20726;-67
2023/02/17 08:14:28;;;;;;;26.80;16.08;;;;;;;;;;5054390;28;20678;-67
2023/02/17 08:16:53;;;;;;;24.92;16.10;;;;;;;;;;5052976;28;20195;-67
2023/02/17 08:19:19;;;;;;;23.40;15.77;;;;;;;;;;5051545;28;20521;-68
2023/02/17 08:21:45;;;;;;;24.90;15.50;;;;;;;;;;5056090;28;20396;-67
2023/02/17 08:24:11;;;;;;;25.45;15.32;;;;;;;;;;5049054;28;20181;-67
2023/02/17 08:26:36;;;;;;;26.27;15.00;;;;;;;;;;5053073;28;20597;-67
2023/02/17 08:29:02;;;;;;;25.27;14.57;;;;;;;;;;5065807;28;20189;-67
2023/02/17 08:31:31;;;;;;;24.70;14.32;;;;;;;;;;5060730;28;20186;-67
2023/02/17 08:33:59;;;;;;;21.38;14.13;;;;;;;;;;5059028;28;20196;-67
2023/02/17 08:36:24;;;;;;;22.95;14.10;;;;;;;;;;5054581;28;20197;-67
2023/02/17 08:38:53;;;;;;;22.33;14.35;;;;;;;;;;5055437;28;20181;-67
2023/02/17 08:41:30;;;;;;;23.88;14.02;;;;;;;;;;5045017;28;20387;-68
2023/02/17 08:43:58;;;;;;;24.50;13.43;;;;;;;;;;5047797;28;20192;-67
2023/02/17 08:46:24;;;;;;;22.70;13.77;;;;;;;;;;5058595;28;20667;-67
2023/02/17 08:48:49;;;;;;;22.35;12.85;;;;;;;;;;5046479;28;20221;-68
2023/02/17 08:51:18;;;;;;;19.35;12.95;;;;;;;;;;5057959;28;20271;-68
2023/02/17 08:53:44;;;;;;;24.23;12.57;;;;;;;;;;5048679;28;20185;-68
2023/02/17 08:56:10;;;;;;;20.02;12.90;;;;;;;;;;5052044;28;20269;-67
2023/02/17 08:58:35;;;;;;;20.27;12.77;;;;;;;;;;5056512;28;20699;-68
2023/02/17 09:01:01;;;;;;;22.83;13.25;;;;;;;;;;5058929;28;20704;-68
2023/02/17 09:03:27;;;;;;;19.80;12.52;;;;;;;;;;5050470;28;20193;-67
2023/02/17 09:05:54;;;;;;;20.42;12.68;;;;;;;;;;5052258;28;20705;-67
2023/02/17 09:08:20;;;;;;;20.13;12.48;;;;;;;;;;5055557;28;20583;-66
2023/02/17 09:10:45;;;;;;;22.83;11.68;;;;;;;;;;5053140;28;20250;-66
2023/02/17 09:13:11;;;;;;;17.63;11.32;;;;;;;;;;5058236;28;20200;-67
2023/02/17 09:15:37;;;;;;;19.98;12.02;;;;;;;;;;5053238;28;20204;-68
2023/02/17 09:18:03;;;;;;;18.02;11.57;;;;;;;;;;5054440;28;20178;-67
2023/02/17 09:20:28;;;;;;;18.83;12.30;;;;;;;;;;5056405;28;20203;-67
2023/02/17 09:22:54;;;;;;;18.30;11.20;;;;;;;;;;5058352;28;20190;-68
2023/02/17 09:25:19;;;;;;;20.90;12.43;;;;;;;;;;5061808;28;20223;-67
2023/02/17 09:27:45;;;;;;;19.00;11.30;;;;;;;;;;5057100;28;20240;-67
2023/02/17 09:30:11;;;;;;;18.23;11.10;;;;;;;;;;5053209;28;20185;-67
2023/02/17 09:32:36;;;;;;;17.95;11.38;;;;;;;;;;5056682;28;20186;-69
2023/02/17 09:35:04;;;;;;;19.55;11.15;;;;;;;;;;5050937;28;20509;-67
2023/02/17 09:37:30;;;;;;;17.52;11.02;;;;;;;;;;5054298;28;20257;-67
2023/02/17 09:39:55;;;;;;;16.00;10.88;;;;;;;;;;5062647;28;20288;-67
2023/02/17 09:42:24;;;;;;;17.70;11.43;;;;;;;;;;5062126;28;20250;-67
2023/02/17 09:44:59;;;;;;;17.10;10.95;;;;;;;;;;5057493;28;20186;-68
2023/02/17 09:47:50;;;;;;;16.48;10.68;;;;;;;;;;5053998;28;20212;-67
2023/02/17 09:50:20;;;;;;;16.83;10.35;;;;;;;;;;5056986;28;20241;-67
2023/02/17 09:52:57;;;;;;;17.33;10.85;;;;;;;;;;5057691;28;20250;-67
2023/02/17 09:55:30;;;;;;;15.68;10.18;;;;;;;;;;5062043;28;20185;-67
2023/02/17 09:57:57;;;;;;;14.75;10.07;;;;;;;;;;5055501;28;20660;-67
2023/02/17 10:00:28;;;;;;;16.25;10.30;;;;;;;;;;5057644;28;20927;-67
2023/02/17 10:03:05;;;;;;;15.40;10.13;;;;;;;;;;5069378;28;20200;-66
2023/02/17 10:05:46;;;;;;;15.70;10.20;;;;;;;;;;5067851;28;20191;-67
2023/02/17 10:08:22;;;;;;;14.93;9.30;;;;;;;;;;5056832;28;20212;-66
2023/02/17 10:10:57;;;;;;;15.63;9.77;;;;;;;;;;5052139;28;20193;-67
2023/02/17 10:13:26;;;;;;;14.15;9.25;;;;;;;;;;5050169;28;20485;-67
2023/02/17 10:15:53;;;;;;;13.77;9.10;;;;;;;;;;5049071;28;20676;-67
2023/02/17 10:18:50;;;;;;;13.93;8.93;;;;;;;;;;5055126;28;20560;-67
2023/02/17 10:21:20;;;;;;;13.38;8.00;;;;;;;;;;5061431;28;20300;-68
2023/02/17 10:23:46;;;;;;;12.25;8.48;;;;;;;;;;5057898;28;20188;-67
2023/02/17 10:26:26;;;;;;;12.40;8.00;;;;;;;;;;5053318;28;20231;-67
2023/02/17 10:29:20;;;;;;;14.38;9.40;;;;;;;;;;5056188;28;20241;-68
2023/02/17 10:31:56;;;;;;;13.50;8.25;;;;;;;;;;5052950;28;20676;-66
2023/02/17 10:34:50;;;;;;;11.88;7.85;;;;;;;;;;5067654;28;20676;-67
2023/02/17 10:37:27;;;;;;;12.18;8.38;;;;;;;;;;5060477;28;20182;-67
2023/02/17 10:39:55;;;;;;;10.30;7.97;;;;;;;;;;5050464;28;20189;-68
2023/02/17 10:42:29;;;;;;;9.95;7.40;;;;;;;;;;5058661;28;20214;-67
2023/02/17 10:45:03;;;;;;;12.45;7.50;;;;;;;;;;5054222;28;20320;-67
2023/02/17 10:47:29;;;;;;;11.20;7.60;;;;;;;;;;5056971;28;20248;-67
2023/02/17 10:49:56;;;;;;;14.38;7.88;;;;;;;;;;5054956;28;20259;-68
2023/02/17 10:52:43;;;;;;;14.15;7.60;;;;;;;;;;5054281;28;20247;-67
2023/02/17 10:55:20;;;;;;;11.25;7.13;;;;;;;;;;5053070;28;20228;-68
2023/02/17 10:57:49;;;;;;;9.43;6.78;;;;;;;;;;5060271;28;20219;-67
2023/02/17 11:00:17;;;;;;;8.88;6.80;;;;;;;;;;5050623;28;20293;-68
2023/02/17 11:02:45;;;;;;;8.85;6.70;;;;;;;;;;5053237;28;20181;-68
2023/02/17 11:05:26;;;;;;;11.95;6.85;;;;;;;;;;5063536;28;20593;-67
2023/02/17 11:08:30;;;;;;;9.30;6.57;;;;;;;;;;5053579;28;20201;-67
2023/02/17 11:11:13;;;;;;;10.40;6.70;;;;;;;;;;5050106;28;20197;-67
2023/02/17 11:14:01;;;;;;;9.75;6.88;;;;;;;;;;5062303;28;20196;-68
2023/02/17 11:16:36;;;;;;;9.77;6.43;;;;;;;;;;5051336;28;20559;-68
2023/02/17 11:19:02;;;;;;;9.07;6.97;;;;;;;;;;5056840;28;20276;-67
2023/02/17 11:21:29;;;;;;;10.80;7.45;;;;;;;;;;5055166;28;20187;-67
2023/02/17 11:23:58;;;;;;;8.25;6.90;;;;;;;;;;5050294;28;20197;-68
2023/02/17 11:26:26;;;;;;;11.27;6.50;;;;;;;;;;5059267;28;20239;-68
2023/02/17 11:28:52;;;;;;;9.77;6.57;;;;;;;;;;5060512;28;20540;-68
2023/02/17 11:31:26;;;;;;;12.25;6.40;;;;;;;;;;5054561;28;20296;-68
2023/02/17 11:33:51;;;;;;;9.45;6.60;;;;;;;;;;5061600;28;20193;-71
2023/02/17 11:36:29;;;;;;;10.75;6.57;;;;;;;;;;5057695;28;20182;-68
2023/02/17 11:38:55;;;;;;;11.05;6.55;;;;;;;;;;5057217;28;20212;-68
2023/02/17 11:41:21;;;;;;;9.68;7.18;;;;;;;;;;5058072;28;20208;-67
2023/02/17 11:44:08;;;;;;;13.43;7.53;;;;;;;;;;5057362;28;20287;-67
2023/02/17 11:46:37;;;;;;;10.90;7.40;;;;;;;;;;5053219;28;20283;-67
2023/02/17 11:49:32;;;;;;;11.18;7.82;;;;;;;;;;5051531;28;20554;-68
2023/02/17 11:52:31;;;;;;;12.85;7.32;;;;;;;;;;5055793;28;20177;-68
2023/02/17 11:55:20;;;;;;;11.10;6.88;;;;;;;;;;5052170;28;20186;-68
2023/02/17 11:58:12;;;;;;;11.68;7.32;;;;;;;;;;5055455;28;20311;-68
2023/02/17 12:00:56;;;;;;;9.55;6.57;;;;;;;;;;5052450;28;20208;-68
2023/02/17 12:03:53;;;;;;;10.52;6.95;;;;;;;;;;5050664;28;20211;-68
2023/02/17 12:06:37;;;;;;;10.65;6.82;;;;;;;;;;5053475;28;20543;-68
2023/02/17 12:09:09;;;;;;;10.48;7.30;;;;;;;;;;5053393;28;20467;-67
2023/02/17 12:11:49;;;;;;;9.70;6.30;;;;;;;;;;5047666;28;20193;-67
2023/02/17 12:14:37;;;;;;;10.68;6.60;;;;;;;;;;5053445;28;20791;-68
2023/02/17 12:17:21;;;;;;;14.40;6.88;;;;;;;;;;5054342;28;20205;-67
2023/02/17 12:20:08;;;;;;;10.95;7.22;;;;;;;;;;5056253;28;20236;-68
2023/02/17 12:23:06;;;;;;;12.70;7.25;;;;;;;;;;5058077;28;20189;-66
2023/02/17 12:26:03;;;;;;;13.57;7.90;;;;;;;;;;5051115;28;20224;-68
2023/02/17 12:28:39;;;;;;;13.93;7.50;;;;;;;;;;5056243;28;20204;-68
2023/02/17 12:31:10;;;;;;;10.02;7.38;;;;;;;;;;5051657;28;20944;-66
2023/02/17 12:33:57;;;;;;;12.80;7.88;;;;;;;;;;5048725;28;20217;-70
2023/02/17 12:36:29;;;;;;;14.48;8.48;;;;;;;;;;5049935;28;20559;-67
2023/02/17 12:39:02;;;;;;;12.88;8.13;;;;;;;;;;5052779;28;20189;-65
2023/02/17 12:41:39;;;;;;;14.52;8.40;;;;;;;;;;5054753;28;20173;-66
2023/02/17 12:44:11;;;;;;;12.98;8.35;;;;;;;;;;5055700;28;20192;-66
2023/02/17 12:46:43;;;;;;;12.00;8.23;;;;;;;;;;5051087;28;20189;-66
2023/02/17 12:49:13;;;;;;;15.77;8.95;;;;;;;;;;5047734;28;20232;-65
2023/02/17 12:52:03;;;;;;;16.08;9.38;;;;;;;;;;5053696;28;20277;-66
2023/02/17 12:54:34;;;;;;;15.02;9.13;;;;;;;;;;5051975;28;20201;-66
2023/02/17 12:57:08;;;;;;;12.88;8.32;;;;;;;;;;5050515;28;20204;-66
2023/02/17 12:59:39;;;;;;;19.58;9.70;;;;;;;;;;5050955;28;20254;-66
2023/02/17 13:02:09;;;;;;;13.98;9.15;;;;;;;;;;5050558;28;20200;-67
2023/02/17 13:04:35;;;;;;;16.17;8.95;;;;;;;;;;5052063;28;20194;-66
2023/02/17 13:07:19;;;;;;;14.85;8.88;;;;;;;;;;5051742;28;20182;-69
2023/02/17 13:09:46;;;;;;;15.25;9.02;;;;;;;;;;5055512;28;20190;-67
2023/02/17 13:12:14;;;;;;;11.27;7.57;;;;;;;;;;5050488;28;20189;-67
2023/02/17 13:14:47;;;;;;;14.50;7.75;;;;;;;;;;5052105;28;20213;-67
2023/02/17 13:17:50;;;;;;;9.48;7.07;;;;;;;;;;5046943;28;20708;-66
2023/02/17 13:20:15;;;;;;;15.48;8.13;;;;;;;;;;5054963;28;20196;-67
2023/02/17 13:22:42;;;;;;;13.20;7.38;;;;;;;;;;5063683;28;20189;-67
2023/02/17 13:25:29;;;;;;;12.82;7.20;;;;;;;;;;5050870;28;20219;-67
2023/02/17 13:27:54;;;;;;;12.93;7.47;;;;;;;;;;5046580;28;20285;-67
2023/02/17 13:30:23;;;;;;;12.05;7.50;;;;;;;;;;5059667;28;20191;-67
2023/02/17 13:33:23;;;;;;;12.65;7.97;;;;;;;;;;5058933;28;20193;-67
2023/02/17 13:35:49;;;;;;;10.30;7.18;;;;;;;;;;5046711;28;20767;-67
2023/02/17 13:38:28;;;;;;;11.32;7.57;;;;;;;;;;5046474;28;20299;-66
2023/02/17 13:40:59;;;;;;;10.95;7.07;;;;;;;;;;5056688;28;20287;-67
2023/02/17 13:43:24;;;;;;;12.10;7.25;;;;;;;;;;5061557;28;20194;-67
2023/02/17 13:45:59;;;;;;;13.38;6.55;;;;;;;;;;5046139;28;20196;-67
2023/02/17 13:48:30;;;;;;;13.13;6.60;;;;;;;;;;5045313;28;20306;-67
2023/02/17 13:51:00;;;;;;;12.10;6.10;;;;;;;;;;5056437;28;20204;-67
2023/02/17 13:53:29;;;;;;;9.30;6.30;;;;;;;;;;5053846;28;20190;-67
2023/02/17 13:56:00;;;;;;;10.40;6.38;;;;;;;;;;5071752;28;20207;-66
2023/02/17 13:58:36;;;;;;;11.63;6.13;;;;;;;;;;5069546;28;20238;-67
2023/02/17 14:01:03;;;;;;;13.63;6.45;;;;;;;;;;5054483;28;20244;-66
2023/02/17 14:03:41;;;;;;;11.43;6.20;;;;;;;;;;5050810;28;20196;-66
2023/02/17 14:06:18;;;;;;;13.00;6.60;;;;;;;;;;5053340;28;20185;-66
2023/02/17 14:08:44;;;;;;;13.57;5.75;;;;;;;;;;5057285;28;20204;-67
2023/02/17 14:11:15;;;;;;;11.93;5.70;;;;;;;;;;5057713;28;20189;-67
2023/02/17 14:13:44;;;;;;;10.40;5.65;;;;;;;;;;5063659;28;20185;-67
2023/02/17 14:16:28;;;;;;;10.38;5.50;;;;;;;;;;5054140;28;20185;-66
2023/02/17 14:19:08;;;;;;;10.38;5.03;;;;;;;;;;5066970;28;20629;-66
2023/02/17 14:21:36;;;;;;;11.57;5.47;;;;;;;;;;5066414;28;20188;-65
2023/02/17 14:24:01;;;;;;;10.70;5.90;;;;;;;;;;5055440;28;20271;-66
2023/02/17 14:26:41;;;;;;;10.25;5.50;;;;;;;;;;5066922;28;20259;-68
2023/02/17 14:29:09;;;;;;;14.13;5.85;;;;;;;;;;5050216;28;20243;-66
2023/02/17 14:31:39;;;;;;;9.20;5.57;;;;;;;;;;5053134;28;20209;-66
2023/02/17 14:34:05;;;;;;;13.48;6.13;;;;;;;;;;5051898;28;20263;-66
2023/02/17 14:36:32;;;;;;;7.70;4.88;;;;;;;;;;5052773;28;20350;-66
2023/02/17 14:38:58;;;;;;;12.43;5.47;;;;;;;;;;5051825;28;20184;-67
2023/02/17 14:41:24;;;;;;;12.43;5.63;;;;;;;;;;5061466;28;20624;-66
2023/02/17 14:43:49;;;;;;;9.38;4.63;;;;;;;;;;5051909;28;20197;-67